createdAt,value
2018-06-28T00:01:59.197Z,101949.88
2018-06-28T00:04:27.376Z,101945.87
2018-06-28T00:06:54.728Z,101947.53
2018-06-28T00:09:21.827Z,101946.01
2018-06-28T00:11:49.045Z,101947.14
2018-06-28T00:14:16.211Z,101945.53
2018-06-28T00:16:43.382Z,101942.77
2018-06-28T00:19:10.610Z,101949.27
2018-06-28T00:21:37.919Z,101946.69
2018-06-28T00:24:05.156Z,101948.06
2018-06-28T00:26:32.361Z,101937.63
2018-06-28T00:28:59.570Z,101935.56
2018-06-28T00:31:26.748Z,101940.27
2018-06-28T00:33:53.929Z,101937.06
2018-06-28T00:36:21.124Z,101940.84
2018-06-28T00:38:48.220Z,101940.62
2018-06-28T00:41:15.356Z,101941.16
2018-06-28T00:43:42.592Z,101938.25
2018-06-28T00:46:09.679Z,101944.59
2018-06-28T00:48:36.800Z,101939.36
2018-06-28T00:51:03.989Z,101931.42
2018-06-28T00:53:31.186Z,101932.53
2018-06-28T00:55:58.393Z,101932.57
2018-06-28T00:58:25.738Z,101926.13
2018-06-28T01:00:52.871Z,101930.52
2018-06-28T01:03:19.988Z,101928.06
2018-06-28T01:05:47.178Z,101931.33
2018-06-28T01:08:14.317Z,101924.38
2018-06-28T01:10:41.418Z,101924.50
2018-06-28T01:13:09.656Z,101925.14
2018-06-28T01:15:36.835Z,101918.20
2018-06-28T01:18:05.230Z,101922.90
2018-06-28T01:20:32.493Z,101922.14
2018-06-28T01:23:00.217Z,101908.86
2018-06-28T01:25:27.491Z,101918.30
2018-06-28T01:27:54.769Z,101912.34
2018-06-28T01:30:22.087Z,101913.36
2018-06-28T01:32:49.223Z,101907.25
2018-06-28T01:35:16.420Z,101908.23
2018-06-28T01:37:43.896Z,101910.23
2018-06-28T01:40:22.628Z,101912.16
2018-06-28T01:43:01.221Z,101904.78
2018-06-28T01:45:28.457Z,101902.38
2018-06-28T01:47:55.908Z,101900.20
2018-06-28T01:50:23.478Z,101901.70
2018-06-28T01:52:51.832Z,101903.38
2018-06-28T01:55:19.007Z,101898.77
2018-06-28T01:57:46.115Z,101891.33
2018-06-28T02:00:13.490Z,101896.12
2018-06-28T02:02:40.630Z,101888.64
2018-06-28T02:05:07.843Z,101886.93
2018-06-28T02:07:35.019Z,101885.70
2018-06-28T02:10:02.513Z,101884.06
2018-06-28T02:12:29.804Z,101887.63
2018-06-28T02:14:57.241Z,101885.29
2018-06-28T02:17:25.489Z,101889.30
2018-06-28T02:19:52.617Z,101880.61
2018-06-28T02:22:19.812Z,101882.41
2018-06-28T02:24:46.948Z,101873.13
2018-06-28T02:27:14.080Z,101878.95
2018-06-28T02:29:41.261Z,101874.20
2018-06-28T02:32:08.379Z,101877.83
2018-06-28T02:34:35.608Z,101873.56
2018-06-28T02:37:02.876Z,101869.65
2018-06-28T02:39:30.421Z,101860.63
2018-06-28T02:41:57.628Z,101864.56
2018-06-28T02:44:24.963Z,101866.83
2018-06-28T02:46:52.434Z,101854.91
2018-06-28T02:49:19.558Z,101853.25
2018-06-28T02:51:46.772Z,101851.09
2018-06-28T02:54:13.928Z,101858.30
2018-06-28T02:56:41.105Z,101858.27
2018-06-28T02:59:08.243Z,101854.84
2018-06-28T03:01:35.397Z,101859.30
2018-06-28T03:04:02.505Z,101855.78
2018-06-28T03:06:29.804Z,101854.52
2018-06-28T03:08:57.016Z,101857.69
2018-06-28T03:11:24.182Z,101850.22
2018-06-28T03:13:51.383Z,101848.89
2018-06-28T03:16:18.536Z,101857.20
2018-06-28T03:18:45.660Z,101853.55
2018-06-28T03:21:12.904Z,101850.89
2018-06-28T03:23:40.072Z,101849.61
2018-06-28T03:26:07.196Z,101858.43
2018-06-28T03:28:34.400Z,101849.61
2018-06-28T03:31:01.627Z,101855.75
2018-06-28T03:33:28.722Z,101864.64
2018-06-28T03:35:55.991Z,101856.69
2018-06-28T03:38:23.142Z,101864.19
2018-06-28T03:40:50.295Z,101861.98
2018-06-28T03:43:17.500Z,101865.61
2018-06-28T03:45:44.632Z,101871.36
2018-06-28T03:48:11.849Z,101860.17
2018-06-28T03:50:39.302Z,101854.74
2018-06-28T03:53:06.398Z,101845.75
2018-06-28T03:55:33.506Z,101847.37
2018-06-28T03:58:00.814Z,101849.88
2018-06-28T04:00:31.495Z,101846.26
2018-06-28T04:03:01.275Z,101853.73
2018-06-28T04:05:28.521Z,101857.05
2018-06-28T04:07:55.860Z,101862.84
2018-06-28T04:10:29.921Z,101854.84
2018-06-28T04:12:57.332Z,101856.14
2018-06-28T04:15:24.574Z,101857.33
2018-06-28T04:17:51.760Z,101863.44
2018-06-28T04:20:18.969Z,101860.54
2018-06-28T04:22:46.128Z,101860.05
2018-06-28T04:25:13.423Z,101855.58
2018-06-28T04:27:40.667Z,101852.78
2018-06-28T04:30:07.759Z,101853.90
2018-06-28T04:32:34.950Z,101852.88
2018-06-28T04:35:02.172Z,101863.23
2018-06-28T04:37:29.416Z,101864.50
2018-06-28T04:39:56.902Z,101866.36
2018-06-28T04:42:25.303Z,101860.09
2018-06-28T04:44:52.481Z,101864.95
2018-06-28T04:47:19.620Z,101858.72
2018-06-28T04:49:47.017Z,101856.89
2018-06-28T04:52:14.148Z,101852.12
2018-06-28T04:54:41.289Z,101850.51
2018-06-28T04:57:08.419Z,101837.72
2018-06-28T04:59:35.539Z,101832.69
2018-06-28T05:02:03.204Z,101841.33
2018-06-28T05:04:30.407Z,101842.86
2018-06-28T05:06:57.791Z,101839.81
2018-06-28T05:09:25.221Z,101841.66
2018-06-28T05:11:54.581Z,101843.88
2018-06-28T05:14:21.703Z,101835.80
2018-06-28T05:16:48.896Z,101836.09
2018-06-28T05:19:16.034Z,101838.30
2018-06-28T05:21:43.216Z,101831.72
2018-06-28T05:24:10.409Z,101839.98
2018-06-28T05:26:37.541Z,101831.81
2018-06-28T05:29:04.839Z,101835.23
2018-06-28T05:31:31.961Z,101832.58
2018-06-28T05:33:59.247Z,101839.53
2018-06-28T05:36:26.429Z,101833.77
2018-06-28T05:38:53.754Z,101832.91
2018-06-28T05:41:20.920Z,101826.16
2018-06-28T05:43:48.004Z,101824.75
2018-06-28T05:46:15.203Z,101831.98
2018-06-28T05:48:42.314Z,101825.06
2018-06-28T05:51:10.521Z,101824.06
2018-06-28T05:53:37.852Z,101818.21
2018-06-28T05:56:04.979Z,101825.44
2018-06-28T05:58:32.317Z,101818.20
2018-06-28T06:00:59.661Z,101820.74
2018-06-28T06:03:26.903Z,101815.02
2018-06-28T06:05:54.085Z,101815.67
2018-06-28T06:08:21.236Z,101817.09
2018-06-28T06:10:48.399Z,101819.81
2018-06-28T06:13:15.547Z,101816.52
2018-06-28T06:15:42.724Z,101814.03
2018-06-28T06:18:09.843Z,101817.26
2018-06-28T06:20:36.968Z,101810.21
2018-06-28T06:23:04.222Z,101815.13
2018-06-28T06:25:31.367Z,101810.66
2018-06-28T06:27:58.537Z,101805.95
2018-06-28T06:30:26.321Z,101808.56
2018-06-28T06:32:53.454Z,101799.87
2018-06-28T06:35:20.645Z,101805.02
2018-06-28T06:37:47.825Z,101805.78
2018-06-28T06:40:15.006Z,101808.95
2018-06-28T06:42:42.136Z,101803.48
2018-06-28T06:45:09.306Z,101798.89
2018-06-28T06:47:36.497Z,101796.23
2018-06-28T06:50:03.742Z,101793.75
2018-06-28T06:52:30.983Z,101797.95
2018-06-28T06:54:58.156Z,101789.66
2018-06-28T06:57:25.319Z,101784.61
2018-06-28T06:59:52.509Z,101787.20
2018-06-28T07:02:19.618Z,101780.36
2018-06-28T07:04:46.820Z,101774.88
2018-06-28T07:07:14.163Z,101779.34
2018-06-28T07:09:41.280Z,101768.63
2018-06-28T07:12:08.390Z,101773.43
2018-06-28T07:14:35.561Z,101759.98
2018-06-28T07:17:02.753Z,101758.22
2018-06-28T07:19:29.900Z,101757.29
2018-06-28T07:21:57.250Z,101745.81
2018-06-28T07:24:24.500Z,101756.70
2018-06-28T07:26:51.791Z,101740.95
2018-06-28T07:29:19.069Z,101748.80
2018-06-28T07:31:46.225Z,101741.51
2018-06-28T07:34:13.473Z,101741.16
2018-06-28T07:36:40.582Z,101743.06
2018-06-28T07:39:09.540Z,101741.53
2018-06-28T07:41:36.741Z,101734.83
2018-06-28T07:44:04.053Z,101729.64
2018-06-28T07:46:31.246Z,101731.34
2018-06-28T07:48:58.962Z,101737.48
2018-06-28T07:51:26.189Z,101725.97
2018-06-28T07:53:54.220Z,101722.52
2018-06-28T07:56:21.404Z,101726.80
2018-06-28T07:58:48.615Z,101718.70
2018-06-28T08:01:15.812Z,101724.95
2018-06-28T08:03:43.264Z,101719.22
2018-06-28T08:06:10.873Z,101709.26
2018-06-28T08:08:38.001Z,101721.26
2018-06-28T08:11:05.244Z,101711.13
2018-06-28T08:13:32.445Z,101700.99
2018-06-28T08:15:59.597Z,101707.62
2018-06-28T08:18:26.946Z,101712.18
2018-06-28T08:20:54.209Z,101698.07
2018-06-28T08:23:21.373Z,101695.96
2018-06-28T08:25:48.514Z,101699.05
2018-06-28T08:28:15.773Z,101692.53
2018-06-28T08:30:43.110Z,101697.06
2018-06-28T08:33:10.229Z,101693.75
2018-06-28T08:35:37.408Z,101694.90
2018-06-28T08:38:04.645Z,101695.22
2018-06-28T08:40:31.897Z,101689.62
2018-06-28T08:42:59.175Z,101690.66
2018-06-28T08:45:26.392Z,101694.09
2018-06-28T08:47:53.639Z,101683.67
2018-06-28T08:50:20.830Z,101690.75
2018-06-28T08:52:47.998Z,101681.72
2018-06-28T08:55:15.221Z,101682.64
2018-06-28T08:57:42.443Z,101673.73
2018-06-28T09:00:09.643Z,101683.75
2018-06-28T09:02:36.784Z,101670.17
2018-06-28T09:05:04.350Z,101673.48
2018-06-28T09:07:31.579Z,101664.09
2018-06-28T09:09:58.776Z,101666.92
2018-06-28T09:12:26.329Z,101660.63
2018-06-28T09:14:53.527Z,101656.22
2018-06-28T09:17:20.747Z,101653.97
2018-06-28T09:19:47.998Z,101640.41
2018-06-28T09:22:15.120Z,101649.42
2018-06-28T09:24:42.240Z,101636.54
2018-06-28T09:27:09.469Z,101650.59
2018-06-28T09:29:36.636Z,101648.68
2018-06-28T09:32:04.196Z,101654.98
2018-06-28T09:34:31.405Z,101647.03
2018-06-28T09:36:58.610Z,101641.36
2018-06-28T09:39:25.951Z,101641.92
2018-06-28T09:41:53.903Z,101638.63
2018-06-28T09:44:21.155Z,101638.70
2018-06-28T09:46:48.348Z,101639.77
2018-06-28T09:49:15.519Z,101639.81
2018-06-28T09:51:42.753Z,101641.15
2018-06-28T09:54:09.956Z,101636.16
2018-06-28T09:56:37.202Z,101637.94
2018-06-28T09:59:04.361Z,101633.53
2018-06-28T10:01:31.561Z,101625.45
2018-06-28T10:03:58.865Z,101628.47
2018-06-28T10:06:26.124Z,101630.50
2018-06-28T10:08:53.358Z,101624.73
2018-06-28T10:11:20.857Z,101627.46
2018-06-28T10:13:48.002Z,101613.98
2018-06-28T10:16:15.205Z,101624.07
2018-06-28T10:18:42.570Z,101608.03
2018-06-28T10:21:09.776Z,101605.03
2018-06-28T10:23:37.480Z,101611.08
2018-06-28T10:26:04.835Z,101598.91
2018-06-28T10:28:32.077Z,101616.73
2018-06-28T10:30:59.293Z,101604.97
2018-06-28T10:33:26.703Z,101610.80
2018-06-28T10:35:53.920Z,101590.81
2018-06-28T10:38:21.147Z,101591.98
2018-06-28T10:40:48.411Z,101592.73
2018-06-28T10:43:15.531Z,101588.02
2018-06-28T10:45:42.779Z,101585.58
2018-06-28T10:48:10.032Z,101577.05
2018-06-28T10:50:37.216Z,101586.17
2018-06-28T10:53:04.438Z,101582.37
2018-06-28T10:55:32.277Z,101564.11
2018-06-28T10:57:59.622Z,101577.67
2018-06-28T11:00:27.173Z,101577.24
2018-06-28T11:02:54.635Z,101578.39
2018-06-28T11:05:21.860Z,101564.78
2018-06-28T11:07:49.221Z,101567.50
2018-06-28T11:10:16.468Z,101564.55
2018-06-28T11:12:43.600Z,101566.06
2018-06-28T11:15:10.781Z,101568.44
2018-06-28T11:17:38.135Z,101554.14
2018-06-28T11:20:05.305Z,101557.11
2018-06-28T11:22:32.604Z,101553.48
2018-06-28T11:25:00.068Z,101540.79
2018-06-28T11:27:27.528Z,101548.55
2018-06-28T11:29:54.955Z,101546.11
2018-06-28T11:32:22.173Z,101542.98
2018-06-28T11:34:50.326Z,101549.29
2018-06-28T11:37:17.516Z,101537.64
2018-06-28T11:39:44.751Z,101527.30
2018-06-28T11:42:11.875Z,101531.41
2018-06-28T11:44:39.265Z,101529.36
2018-06-28T11:47:06.493Z,101516.61
2018-06-28T11:49:34.029Z,101525.16
2018-06-28T11:52:01.230Z,101521.83
2018-06-28T11:54:28.979Z,101518.09
2018-06-28T11:56:56.355Z,101519.81
2018-06-28T11:59:23.805Z,101506.86
2018-06-28T12:01:51.244Z,101504.37
2018-06-28T12:04:18.494Z,101513.94
2018-06-28T12:06:45.629Z,101517.28
2018-06-28T12:09:12.818Z,101500.86
2018-06-28T12:11:40.498Z,101503.64
2018-06-28T12:14:08.143Z,101503.95
2018-06-28T12:16:35.363Z,101506.84
2018-06-28T12:19:02.617Z,101497.47
2018-06-28T12:21:29.832Z,101493.38
2018-06-28T12:23:57.382Z,101489.54
2018-06-28T12:26:25.534Z,101487.33
2018-06-28T12:28:52.656Z,101487.81
2018-06-28T12:31:19.892Z,101489.93
2018-06-28T12:33:47.019Z,101493.98
2018-06-28T12:36:14.158Z,101482.95
2018-06-28T12:38:41.293Z,101485.78
2018-06-28T12:41:08.525Z,101483.05
2018-06-28T12:43:35.661Z,101477.77
2018-06-28T12:46:02.883Z,101469.48
2018-06-28T12:48:30.146Z,101467.52
2018-06-28T12:50:57.391Z,101462.05
2018-06-28T12:53:24.673Z,101449.97
2018-06-28T12:56:29.756Z,101465.48
2018-06-28T12:58:58.572Z,101464.31
2018-06-28T13:01:26.312Z,101463.93
2018-06-28T13:03:53.992Z,101467.58
2018-06-28T13:06:21.326Z,101462.45
2018-06-28T13:08:48.811Z,101464.37
2018-06-28T13:11:16.008Z,101460.23
2018-06-28T13:13:43.227Z,101458.92
2018-06-28T13:16:12.260Z,101460.15
2018-06-28T13:18:39.439Z,101449.81
2018-06-28T13:21:08.833Z,101458.84
2018-06-28T13:23:36.159Z,101455.59
2018-06-28T13:26:03.459Z,101443.83
2018-06-28T13:28:30.971Z,101438.23
2018-06-28T13:30:58.302Z,101445.06
2018-06-28T13:33:25.918Z,101438.78
2018-06-28T13:35:53.278Z,101430.03
2018-06-28T13:38:20.494Z,101431.89
2018-06-28T13:40:47.723Z,101428.94
2018-06-28T13:43:14.818Z,101423.00
2018-06-28T13:45:41.965Z,101419.13
2018-06-28T13:48:09.081Z,101415.28
2018-06-28T13:50:36.261Z,101414.20
2018-06-28T13:53:03.635Z,101416.42
2018-06-28T13:55:30.915Z,101413.20
2018-06-28T13:57:58.485Z,101407.09
2018-06-28T14:00:25.897Z,101409.58
2018-06-28T14:02:53.004Z,101410.08
2018-06-28T14:05:20.353Z,101407.07
2018-06-28T14:07:47.505Z,101400.95
2018-06-28T14:10:14.616Z,101398.59
2018-06-28T14:12:41.767Z,101394.72
2018-06-28T14:15:08.976Z,101391.63
2018-06-28T14:17:36.927Z,101383.66
2018-06-28T14:20:05.187Z,101382.42
2018-06-28T14:22:32.440Z,101381.92
2018-06-28T14:24:59.894Z,101370.19
2018-06-28T14:27:27.263Z,101387.16
2018-06-28T14:29:54.840Z,101386.55
2018-06-28T14:32:22.401Z,101385.87
2018-06-28T14:34:49.894Z,101373.31
2018-06-28T14:37:17.016Z,101378.62
2018-06-28T14:39:44.175Z,101376.94
2018-06-28T14:42:11.403Z,101376.42
2018-06-28T14:44:38.507Z,101372.15
2018-06-28T14:47:05.769Z,101377.78
2018-06-28T14:49:33.113Z,101374.56
2018-06-28T14:52:00.333Z,101370.05
2018-06-28T14:54:27.625Z,101374.92
2018-06-28T14:56:55.029Z,101373.27
2018-06-28T14:59:22.176Z,101378.09
2018-06-28T15:01:49.284Z,101368.69
2018-06-28T15:04:16.671Z,101380.66
2018-06-28T15:06:43.768Z,101376.52
2018-06-28T15:09:12.864Z,101385.57
2018-06-28T15:11:40.367Z,101380.66
2018-06-28T15:14:07.511Z,101385.78
2018-06-28T15:16:34.772Z,101377.09
2018-06-28T15:19:01.957Z,101384.31
2018-06-28T15:21:29.372Z,101383.84
2018-06-28T15:23:56.588Z,101376.56
2018-06-28T15:26:23.802Z,101379.02
2018-06-28T15:28:51.084Z,101375.86
2018-06-28T15:31:18.235Z,101373.09
2018-06-28T15:33:45.860Z,101371.35
2018-06-28T15:36:13.015Z,101368.41
2018-06-28T15:38:40.183Z,101369.63
2018-06-28T15:41:07.451Z,101371.44
2018-06-28T15:43:34.781Z,101363.00
2018-06-28T15:46:02.028Z,101359.66
2018-06-28T15:48:29.669Z,101360.14
2018-06-28T15:50:57.283Z,101348.84
2018-06-28T15:53:25.082Z,101343.89
2018-06-28T15:55:52.376Z,101350.70
2018-06-28T15:58:19.509Z,101344.42
2018-06-28T16:00:46.736Z,101338.77
2018-06-28T16:03:13.936Z,101325.68
2018-06-28T16:05:41.100Z,101329.08
2018-06-28T16:08:08.279Z,101328.53
2018-06-28T16:10:35.676Z,101327.46
2018-06-28T16:13:02.946Z,101328.67
2018-06-28T16:15:30.330Z,101331.92
2018-06-28T16:17:58.066Z,101324.38
2018-06-28T16:20:25.568Z,101313.48
2018-06-28T16:22:52.693Z,101311.45
2018-06-28T16:25:19.936Z,101317.13
2018-06-28T16:27:47.119Z,101310.24
2018-06-28T16:30:14.360Z,101310.31
2018-06-28T16:32:41.555Z,101315.16
2018-06-28T16:35:08.878Z,101310.85
2018-06-28T16:37:35.996Z,101313.62
2018-06-28T16:40:03.371Z,101310.27
2018-06-28T16:42:30.644Z,101311.18
2018-06-28T16:44:58.062Z,101314.38
2018-06-28T16:47:25.438Z,101310.61
2018-06-28T16:49:52.588Z,101311.56
2018-06-28T16:52:19.872Z,101304.98
2018-06-28T16:54:47.116Z,101304.87
2018-06-28T16:57:14.281Z,101305.59
2018-06-28T16:59:41.558Z,101297.44
2018-06-28T17:02:08.700Z,101311.97
2018-06-28T17:04:35.810Z,101310.67
2018-06-28T17:07:03.229Z,101307.69
2018-06-28T17:09:31.591Z,101305.22
2018-06-28T17:11:58.957Z,101303.73
2018-06-28T17:14:26.479Z,101299.70
2018-06-28T17:16:53.937Z,101299.55
2018-06-28T17:19:21.082Z,101293.67
2018-06-28T17:21:48.200Z,101295.97
2018-06-28T17:24:15.412Z,101289.81
2018-06-28T17:26:42.568Z,101304.05
2018-06-28T17:29:09.716Z,101309.36
2018-06-28T17:31:36.993Z,101306.30
2018-06-28T17:34:04.235Z,101311.72
2018-06-28T17:36:31.491Z,101309.99
2018-06-28T17:38:59.036Z,101309.16
2018-06-28T17:41:26.720Z,101307.93
2018-06-28T17:43:53.991Z,101299.08
2018-06-28T17:46:21.180Z,101303.97
2018-06-28T17:48:48.295Z,101306.03
2018-06-28T17:51:15.531Z,101308.50
2018-06-28T17:53:42.725Z,101310.10
2018-06-28T17:56:09.846Z,101306.30
2018-06-28T17:58:37.317Z,101309.95
2018-06-28T18:01:04.584Z,101308.11
2018-06-28T18:03:31.877Z,101314.83
2018-06-28T18:05:59.131Z,101309.02
2018-06-28T18:08:26.646Z,101314.33
2018-06-28T18:10:53.910Z,101312.00
2018-06-28T18:13:21.042Z,101308.88
2018-06-28T18:15:48.208Z,101309.84
2018-06-28T18:18:15.380Z,101309.80
2018-06-28T18:20:42.523Z,101307.30
2018-06-28T18:23:09.674Z,101306.90
2018-06-28T18:25:36.779Z,101318.91
2018-06-28T18:28:04.205Z,101312.88
2018-06-28T18:30:31.535Z,101319.28
2018-06-28T18:32:58.933Z,101314.77
2018-06-28T18:35:26.262Z,101309.75
2018-06-28T18:37:55.800Z,101313.30
2018-06-28T18:40:22.952Z,101310.82
2018-06-28T18:42:50.136Z,101309.48
2018-06-28T18:45:18.340Z,101317.83
2018-06-28T18:47:45.469Z,101316.23
2018-06-28T18:50:12.749Z,101311.62
2018-06-28T18:52:39.904Z,101302.38
2018-06-28T18:55:07.052Z,101309.09
2018-06-28T18:57:34.365Z,101313.20
2018-06-28T19:00:01.605Z,101310.42
2018-06-28T19:02:28.791Z,101313.66
2018-06-28T19:04:56.193Z,101317.07
2018-06-28T19:07:23.373Z,101319.16
2018-06-28T19:09:56.272Z,101315.89
2018-06-28T19:12:23.442Z,101322.78
2018-06-28T19:14:56.289Z,101323.94
2018-06-28T19:17:23.610Z,101328.91
2018-06-28T19:19:50.797Z,101324.22
2018-06-28T19:22:24.192Z,101333.30
2018-06-28T19:24:51.355Z,101333.34
2018-06-28T19:27:18.471Z,101335.98
2018-06-28T19:29:51.693Z,101336.37
2018-06-28T19:32:26.057Z,101343.42
2018-06-28T19:34:54.200Z,101338.87
2018-06-28T19:37:27.123Z,101336.00
2018-06-28T19:40:00.096Z,101341.95
2018-06-28T19:42:33.327Z,101336.62
2018-06-28T19:45:00.868Z,101339.27
2018-06-28T19:47:28.229Z,101345.31
2018-06-28T19:50:01.705Z,101333.65
2018-06-28T19:52:35.090Z,101337.59
2018-06-28T19:55:02.617Z,101337.42
2018-06-28T19:57:30.012Z,101335.93
2018-06-28T19:59:57.839Z,101333.08
2018-06-28T20:02:31.230Z,101329.49
2018-06-28T20:04:59.137Z,101334.93
2018-06-28T20:07:27.155Z,101337.45
2018-06-28T20:09:54.731Z,101333.42
2018-06-28T20:12:27.865Z,101328.36
2018-06-28T20:15:00.789Z,101330.17
2018-06-28T20:17:33.747Z,101324.91
2018-06-28T20:20:06.635Z,101331.23
2018-06-28T20:22:33.894Z,101327.12
2018-06-28T20:25:01.190Z,101330.96
2018-06-28T20:27:34.278Z,101330.59
2018-06-28T20:30:07.308Z,101332.30
2018-06-28T20:32:41.151Z,101335.20
2018-06-28T20:35:08.287Z,101334.61
2018-06-28T20:37:35.414Z,101330.20
2018-06-28T20:40:02.807Z,101336.09
2018-06-28T20:42:30.005Z,101332.72
2018-06-28T20:44:57.500Z,101336.08
2018-06-28T20:47:24.952Z,101344.27
2018-06-28T20:49:52.107Z,101346.56
2018-06-28T20:52:19.226Z,101354.20
2018-06-28T20:54:46.369Z,101362.95
2018-06-28T20:57:13.527Z,101349.55
2018-06-28T20:59:40.626Z,101350.47
2018-06-28T21:02:08.145Z,101350.25
2018-06-28T21:04:35.277Z,101350.23
2018-06-28T21:07:03.141Z,101356.53
2018-06-28T21:09:30.404Z,101354.66
2018-06-28T21:11:57.851Z,101358.42
2018-06-28T21:14:25.508Z,101353.28
2018-06-28T21:16:52.719Z,101349.05
2018-06-28T21:19:19.847Z,101359.08
2018-06-28T21:21:46.945Z,101353.89
2018-06-28T21:24:14.197Z,101352.52
2018-06-28T21:26:41.376Z,101359.45
2018-06-28T21:29:08.484Z,101364.48
2018-06-28T21:31:35.647Z,101357.09
2018-06-28T21:34:02.849Z,101356.19
2018-06-28T21:36:30.161Z,101362.17
2018-06-28T21:38:57.447Z,101369.75
2018-06-28T21:41:24.782Z,101360.39
2018-06-28T21:43:51.954Z,101360.75
2018-06-28T21:46:19.103Z,101355.72
2018-06-28T21:48:46.243Z,101359.56
2018-06-28T21:51:13.339Z,101355.70
2018-06-28T21:53:40.486Z,101370.00
2018-06-28T21:56:07.615Z,101358.72
2018-06-28T21:58:34.863Z,101360.28
2018-06-28T22:01:02.131Z,101359.59
2018-06-28T22:03:29.397Z,101368.28
2018-06-28T22:05:56.664Z,101368.87
2018-06-28T22:08:23.969Z,101362.50
2018-06-28T22:10:51.105Z,101363.69
2018-06-28T22:13:18.196Z,101357.17
2018-06-28T22:15:45.320Z,101361.91
2018-06-28T22:18:12.423Z,101357.11
2018-06-28T22:20:39.606Z,101364.11
2018-06-28T22:23:06.773Z,101362.67
2018-06-28T22:25:33.942Z,101361.34
2018-06-28T22:28:01.196Z,101359.06
2018-06-28T22:30:28.602Z,101353.19
2018-06-28T22:32:56.031Z,101354.31
2018-06-28T22:35:23.177Z,101344.64
2018-06-28T22:37:53.821Z,101345.91
2018-06-28T22:40:20.935Z,101338.83
2018-06-28T22:42:48.055Z,101339.02
2018-06-28T22:45:15.245Z,101342.22
2018-06-28T22:47:42.361Z,101343.55
2018-06-28T22:50:09.461Z,101340.52
2018-06-28T22:52:36.591Z,101335.64
2018-06-28T22:55:04.011Z,101329.19
2018-06-28T22:57:31.218Z,101334.39
2018-06-28T22:59:58.521Z,101330.98
2018-06-28T23:02:25.838Z,101333.98
2018-06-28T23:04:53.508Z,101329.98
2018-06-28T23:07:20.735Z,101337.51
2018-06-28T23:09:47.848Z,101329.25
2018-06-28T23:12:14.976Z,101334.17
2018-06-28T23:14:42.125Z,101335.88
2018-06-28T23:17:09.253Z,101333.92
2018-06-28T23:19:36.453Z,101326.97
2018-06-28T23:22:03.759Z,101321.08
2018-06-28T23:24:30.988Z,101327.94
2018-06-28T23:26:58.204Z,101328.55
2018-06-28T23:29:25.606Z,101327.55
2018-06-28T23:31:52.779Z,101320.34
2018-06-28T23:34:20.018Z,101319.70
2018-06-28T23:36:47.230Z,101313.58
2018-06-28T23:39:14.335Z,101320.81
2018-06-28T23:41:41.473Z,101319.44
2018-06-28T23:44:08.648Z,101324.00
2018-06-28T23:46:36.141Z,101322.03
2018-06-28T23:49:03.481Z,101319.98
2018-06-28T23:51:30.968Z,101312.64
2018-06-28T23:53:58.244Z,101320.70
2018-06-28T23:56:25.509Z,101316.24
2018-06-28T23:58:52.967Z,101310.34
